»·PEaware :: WAT833 KTEX-4V1

WAT833 :: KTEX-4V1

FLIGHT INFORMATION

Flight Status: Arrived
Operator:
Walker Air Transport
More flights by this operator :: More flights under this callsign
Pilot: David S. (6552)
Aircraft: Unknown
(LEG2)
More flights by this aircraft type
Origin: KTEX Telluride Regl
United States
Destination: 4V1 Spanish Peaks
United States
More flights between these airports :: More routes between these airports
Route: ETL V382 DRO V211 BBRTA V210 GOSIP
File this flight plan on PilotEdge
Remarks:
Altitude:
(Current/Filed)
17,000ft
Speed:
(Current/Filed)
230kts
Departed: 07-Oct-23 11:24 AM
Arrived: 07-Oct-23 12:23 PM
Distance/Time
Traveled:
148nm/0:58
Distance/Time
To Go:
Arrived

Flight Plot

Page will automatically refresh every two minutes.

Flight plan parsing failed; only flown route is shown


Map Options




Map Legend


Flown Route
Filed Route
Departure Airport
Arrival Airport
Navaid (VOR, NDB)
Fix

Horizontal Profiles

Position Reports

Time Latitude Longitude Heading Altitude Ground
Speed
07-Oct-23 10:56 37.954024 -107.902752 106 9058ft 0kts
07-Oct-23 10:57 37.954024 -107.902752 106 9058ft 0kts
07-Oct-23 10:58 37.954024 -107.902752 106 9058ft 0kts
07-Oct-23 10:59 37.954024 -107.902752 106 9058ft 0kts
07-Oct-23 11:00 37.954024 -107.902752 106 9058ft 0kts
07-Oct-23 11:01 37.954024 -107.902752 106 9058ft 0kts
07-Oct-23 11:02 37.954024 -107.902752 106 9058ft 0kts
07-Oct-23 11:03 37.954024 -107.902752 106 9058ft 0kts
07-Oct-23 11:04 37.954024 -107.902752 106 9058ft 0kts
07-Oct-23 11:05 37.954024 -107.902752 106 9058ft 0kts
07-Oct-23 11:06 37.954024 -107.902752 106 9058ft 0kts
07-Oct-23 11:07 37.954024 -107.902752 106 9058ft 0kts
07-Oct-23 11:08 37.954024 -107.902752 106 9058ft 0kts
07-Oct-23 11:09 37.954024 -107.902752 106 9058ft 0kts
07-Oct-23 11:10 37.954024 -107.902752 106 9058ft 0kts
07-Oct-23 11:11 37.954024 -107.902752 106 9058ft 0kts
07-Oct-23 11:12 37.954024 -107.902752 106 9058ft 0kts
07-Oct-23 11:13 37.954024 -107.902752 106 9058ft 0kts
07-Oct-23 11:14 37.954024 -107.902752 106 9058ft 0kts
07-Oct-23 11:15 37.954024 -107.902752 106 9058ft 0kts
07-Oct-23 11:16 37.954024 -107.902752 106 9058ft 0kts
07-Oct-23 11:17 37.954024 -107.902752 106 9058ft 0kts
07-Oct-23 11:18 37.954012 -107.902708 108 9058ft 3kts
07-Oct-23 11:19 37.953355 -107.901135 103 9059ft 0kts
07-Oct-23 11:19 37.953354 -107.901135 103 9059ft 0kts
07-Oct-23 11:21 37.953311 -107.900905 104 9060ft 8kts
07-Oct-23 11:22 37.952473 -107.896897 119 9090ft 10kts
07-Oct-23 11:23 37.952345 -107.896704 140 9090ft 0kts
07-Oct-23 11:24 37.953327 -107.906418 285 9022ft 115kts
07-Oct-23 11:24 37.962728 -107.946086 284 10337ft 150kts
07-Oct-23 11:25 37.970909 -107.999023 284 12288ft 157kts
07-Oct-23 11:26 37.983931 -108.052594 284 14159ft 160kts
07-Oct-23 11:28 37.999409 -108.118320 284 16139ft 166kts
07-Oct-23 11:29 38.011980 -108.177030 281 17531ft 177kts
07-Oct-23 11:29 38.008722 -108.233051 216 17594ft 217kts
07-Oct-23 11:30 37.949426 -108.212248 156 17576ft 237kts
07-Oct-23 11:31 37.886909 -108.175522 156 17542ft 249kts
07-Oct-23 11:32 37.822664 -108.137857 155 17571ft 250kts
07-Oct-23 11:33 37.758140 -108.100113 156 17530ft 251kts
07-Oct-23 11:34 37.693742 -108.062505 156 17528ft 252kts
07-Oct-23 11:35 37.628939 -108.024736 156 17498ft 251kts
07-Oct-23 11:36 37.564266 -107.987110 156 17647ft 246kts
07-Oct-23 11:37 37.500609 -107.950156 156 17652ft 250kts
07-Oct-23 11:38 37.436548 -107.913096 156 17638ft 251kts
07-Oct-23 11:39 37.371452 -107.875465 155 17640ft 252kts
07-Oct-23 11:40 37.306751 -107.838106 156 17632ft 252kts
07-Oct-23 11:41 37.241946 -107.800771 156 17628ft 251kts
07-Oct-23 11:42 37.176177 -107.762945 156 17628ft 252kts
07-Oct-23 11:43 37.136518 -107.694112 109 17624ft 253kts
07-Oct-23 11:44 37.111363 -107.609204 110 17630ft 254kts
07-Oct-23 11:45 37.086152 -107.524800 109 17628ft 254kts
07-Oct-23 11:46 37.060742 -107.439972 109 17635ft 255kts
07-Oct-23 11:47 37.035165 -107.354849 110 17639ft 259kts
07-Oct-23 11:48 37.009245 -107.268872 110 17652ft 261kts
07-Oct-23 11:49 36.996013 -107.180530 69 17661ft 259kts
07-Oct-23 11:50 37.019375 -107.093838 70 17660ft 260kts
07-Oct-23 11:51 37.042716 -107.005442 70 17681ft 260kts
07-Oct-23 11:52 37.065872 -106.917435 70 17679ft 260kts
07-Oct-23 11:53 37.088774 -106.830085 70 17680ft 261kts
07-Oct-23 11:54 37.111819 -106.741888 70 17644ft 262kts
07-Oct-23 11:55 37.134622 -106.654325 70 17630ft 261kts
07-Oct-23 11:56 37.157593 -106.565818 70 17588ft 263kts
07-Oct-23 11:57 37.180497 -106.477241 70 17530ft 263kts
07-Oct-23 11:58 37.203127 -106.389453 70 17577ft 261kts
07-Oct-23 11:59 37.225816 -106.301107 71 17585ft 262kts
07-Oct-23 12:00 37.247298 -106.217137 71 17581ft 262kts
07-Oct-23 12:01 37.270121 -106.127634 71 17590ft 261kts
07-Oct-23 12:02 37.292725 -106.038669 71 17582ft 261kts
07-Oct-23 12:03 37.315264 -105.949686 71 17577ft 262kts
07-Oct-23 12:04 37.337808 -105.860383 71 17581ft 262kts
07-Oct-23 12:05 37.359211 -105.771325 72 17582ft 262kts
07-Oct-23 12:06 37.379896 -105.680555 72 17456ft 267kts
07-Oct-23 12:07 37.401617 -105.584746 72 16231ft 286kts
07-Oct-23 12:08 37.423813 -105.486590 72 15382ft 273kts
07-Oct-23 12:09 37.444703 -105.393939 72 15381ft 266kts
07-Oct-23 12:10 37.465341 -105.302043 72 15370ft 269kts
07-Oct-23 12:11 37.486069 -105.209346 73 15383ft 270kts
07-Oct-23 12:12 37.506635 -105.116909 73 15417ft 270kts
07-Oct-23 12:13 37.527391 -105.023247 72 15456ft 268kts
07-Oct-23 12:14 37.547908 -104.930291 73 15498ft 269kts
07-Oct-23 12:15 37.568592 -104.836181 72 15505ft 271kts
07-Oct-23 12:16 37.589225 -104.743253 67 14104ft 267kts
07-Oct-23 12:17 37.618381 -104.662587 46 10786ft 232kts
07-Oct-23 12:18 37.671310 -104.651344 304 7763ft 184kts
07-Oct-23 12:19 37.689305 -104.704476 280 6849ft 135kts
07-Oct-23 12:20 37.694759 -104.747166 273 6441ft 112kts
07-Oct-23 12:21 37.696702 -104.785129 274 6033ft 65kts
07-Oct-23 12:22 37.696687 -104.791554 185 6045ft 7kts
07-Oct-23 12:23 37.695779 -104.792175 169 6047ft 0kts
07-Oct-23 12:24 37.695779 -104.792175 169 6047ft 0kts
07-Oct-23 12:25 37.695779 -104.792175 169 6047ft 0kts
07-Oct-23 12:26 37.695779 -104.792175 169 6047ft 0kts
07-Oct-23 12:27 37.695779 -104.792175 169 6047ft 0kts
07-Oct-23 12:28 37.695779 -104.792175 169 6047ft 0kts
07-Oct-23 12:29 37.695779 -104.792175 169 6047ft 0kts
07-Oct-23 12:30 37.695779 -104.792175 169 6047ft 0kts
07-Oct-23 12:31 37.695779 -104.792175 169 6047ft 0kts
07-Oct-23 12:32 37.695779 -104.792175 169 6047ft 0kts
07-Oct-23 12:33 37.695779 -104.792175 169 6047ft 0kts
07-Oct-23 12:34 37.695779 -104.792175 169 6047ft 0kts
07-Oct-23 12:35 37.695779 -104.792175 169 6047ft 0kts
07-Oct-23 12:36 37.695779 -104.792175 169 6047ft 0kts

Navigation Log

Ident Type
Flight plan parsing failed, navigation log unavailable